createdAt,value
2019-04-26T00:01:45.917Z,68.69
2019-04-26T00:04:32.010Z,68.77
2019-04-26T00:07:18.773Z,68.79
2019-04-26T00:10:11.733Z,68.77
2019-04-26T00:13:05.195Z,68.75
2019-04-26T00:16:00.630Z,69.05
2019-04-26T00:18:46.533Z,69.67
2019-04-26T00:21:32.566Z,69.72
2019-04-26T00:24:19.394Z,69.75
2019-04-26T00:27:05.490Z,69.75
2019-04-26T00:30:34.612Z,69.93
2019-04-26T00:33:21.432Z,70.00
2019-04-26T00:36:07.515Z,70.18
2019-04-26T00:38:53.702Z,70.55
2019-04-26T00:41:39.929Z,70.45
2019-04-26T00:44:26.068Z,70.82
2019-04-26T00:47:15.161Z,71.01
2019-04-26T00:50:02.224Z,71.27
2019-04-26T00:52:48.808Z,71.61
2019-04-26T00:55:35.465Z,71.63
2019-04-26T00:58:22.415Z,71.86
2019-04-26T01:01:08.525Z,72.10
2019-04-26T01:03:54.861Z,72.15
2019-04-26T01:06:42.635Z,72.21
2019-04-26T01:09:28.730Z,72.48
2019-04-26T01:12:16.365Z,72.80
2019-04-26T01:15:02.752Z,73.52
2019-04-26T01:17:48.779Z,73.36
2019-04-26T01:20:36.029Z,73.87
2019-04-26T01:23:22.992Z,74.02
2019-04-26T01:26:16.753Z,74.41
2019-04-26T01:29:05.815Z,74.33
2019-04-26T01:31:59.572Z,74.40
2019-04-26T01:34:46.582Z,74.39
2019-04-26T01:37:32.954Z,74.40
2019-04-26T01:40:21.992Z,74.57
2019-04-26T01:43:15.835Z,74.73
2019-04-26T01:46:11.285Z,74.85
2019-04-26T01:49:04.100Z,74.96
2019-04-26T01:52:06.784Z,75.10
2019-04-26T01:54:53.232Z,75.19
2019-04-26T01:57:40.404Z,75.37
2019-04-26T02:00:49.075Z,75.60
2019-04-26T02:03:35.048Z,75.83
2019-04-26T02:06:28.784Z,76.22
2019-04-26T02:09:11.116Z,76.24
2019-04-26T02:11:57.460Z,76.49
2019-04-26T02:14:43.737Z,76.44
2019-04-26T02:17:29.715Z,76.68
2019-04-26T02:21:05.700Z,77.11
2019-04-26T02:23:56.952Z,77.69
2019-04-26T02:26:45.379Z,77.33
2019-04-26T02:29:32.638Z,78.70
2019-04-26T02:32:19.312Z,79.14
2019-04-26T02:35:05.859Z,79.57
2019-04-26T02:37:52.213Z,79.61
2019-04-26T02:40:38.411Z,79.86
2019-04-26T02:43:26.473Z,80.35
2019-04-26T02:46:29.241Z,80.07
2019-04-26T02:49:30.721Z,79.93
2019-04-26T02:52:23.017Z,80.00
2019-04-26T02:55:38.843Z,79.96
2019-04-26T02:58:24.642Z,79.98
2019-04-26T03:01:10.981Z,80.03
2019-04-26T03:03:57.253Z,79.89
2019-04-26T03:07:01.889Z,79.73
2019-04-26T03:09:36.899Z,80.05
2019-04-26T03:12:26.548Z,80.15
2019-04-26T03:15:27.166Z,80.45
2019-04-26T03:18:45.751Z,80.59
2019-04-26T03:22:11.475Z,80.92
2019-04-26T03:25:22.020Z,81.19
2019-04-26T03:28:25.317Z,81.16
2019-04-26T03:31:26.342Z,81.08
2019-04-26T03:34:50.810Z,81.47
2019-04-26T03:38:03.424Z,81.58
2019-04-26T03:41:13.377Z,81.55
2019-04-26T03:44:18.219Z,82.01
2019-04-26T03:47:09.669Z,82.45
2019-04-26T03:50:19.282Z,82.50
2019-04-26T03:53:39.387Z,82.40
2019-04-26T03:57:32.521Z,82.34
2019-04-26T04:00:47.494Z,82.07
2019-04-26T04:04:04.420Z,82.30
2019-04-26T04:07:03.045Z,82.48
2019-04-26T04:09:44.856Z,82.38
2019-04-26T04:12:50.776Z,82.44
2019-04-26T04:15:46.715Z,82.29
2019-04-26T04:18:35.215Z,82.15
2019-04-26T04:21:46.930Z,82.06
2019-04-26T04:24:45.435Z,81.60
2019-04-26T04:27:42.024Z,81.48
2019-04-26T04:31:13.916Z,81.46
2019-04-26T04:34:19.232Z,81.02
2019-04-26T04:37:06.654Z,80.78
2019-04-26T04:40:23.469Z,80.05
2019-04-26T04:43:34.582Z,78.68
2019-04-26T04:47:26.004Z,76.41
2019-04-26T04:50:52.528Z,74.93
2019-04-26T04:53:57.507Z,75.41
2019-04-26T04:57:20.812Z,75.42
2019-04-26T05:00:33.635Z,75.70
2019-04-26T05:03:44.076Z,76.59
2019-04-26T05:07:14.966Z,77.25
2019-04-26T05:10:15.366Z,78.05
2019-04-26T05:13:24.940Z,78.56
2019-04-26T05:16:39.491Z,78.18
2019-04-26T05:19:41.397Z,75.55
2019-04-26T05:22:51.168Z,73.03
2019-04-26T05:26:37.716Z,73.29
2019-04-26T05:30:01.237Z,74.03
2019-04-26T05:33:38.681Z,75.28
2019-04-26T05:36:50.604Z,76.24
2019-04-26T05:40:16.069Z,77.13
2019-04-26T05:43:46.125Z,77.75
2019-04-26T05:47:29.245Z,77.73
2019-04-26T05:51:09.700Z,78.48
2019-04-26T05:55:02.670Z,78.04
2019-04-26T05:58:18.616Z,78.05
2019-04-26T06:01:55.204Z,77.92
2019-04-26T06:05:18.347Z,77.72
2019-04-26T06:08:43.821Z,77.86
2019-04-26T06:11:55.130Z,78.25
2019-04-26T06:15:16.092Z,78.61
2019-04-26T06:18:43.123Z,78.43
2019-04-26T06:21:52.183Z,78.40
2019-04-26T06:25:15.767Z,77.68
2019-04-26T06:28:41.310Z,77.83
2019-04-26T06:31:35.555Z,77.94
2019-04-26T06:34:36.305Z,77.81
2019-04-26T06:37:37.051Z,77.17
2019-04-26T06:40:49.741Z,77.25
2019-04-26T06:43:43.765Z,77.71
2019-04-26T06:47:10.766Z,77.04
2019-04-26T06:50:26.080Z,76.62
2019-04-26T06:53:36.491Z,76.30
2019-04-26T06:56:48.877Z,76.73
2019-04-26T07:00:25.306Z,75.43
2019-04-26T07:03:29.426Z,75.79
2019-04-26T07:06:18.615Z,75.81
2019-04-26T07:09:09.901Z,74.87
2019-04-26T07:12:42.420Z,74.68
2019-04-26T07:16:01.449Z,74.56
2019-04-26T07:19:51.255Z,74.52
2019-04-26T07:23:18.456Z,74.52
2019-04-26T07:26:42.050Z,74.72
2019-04-26T07:30:05.197Z,74.91
2019-04-26T07:33:23.990Z,74.83
2019-04-26T07:37:04.654Z,74.87
2019-04-26T07:40:38.479Z,75.14
2019-04-26T07:44:26.720Z,75.10
2019-04-26T07:47:47.500Z,75.02
2019-04-26T07:51:20.375Z,74.95
2019-04-26T07:54:45.341Z,74.59
2019-04-26T07:58:22.568Z,74.61
2019-04-26T08:01:25.740Z,74.18
2019-04-26T08:04:17.505Z,73.88
2019-04-26T08:07:08.594Z,73.81
2019-04-26T08:10:07.770Z,73.56
2019-04-26T08:13:08.487Z,74.00
2019-04-26T08:16:21.911Z,75.51
2019-04-26T08:19:14.690Z,76.30
2019-04-26T08:22:14.874Z,78.34
2019-04-26T08:24:50.930Z,80.00
2019-04-26T08:27:38.669Z,79.90
2019-04-26T08:30:26.131Z,80.63
2019-04-26T08:33:14.675Z,81.30
2019-04-26T08:36:03.081Z,81.73
2019-04-26T08:38:52.519Z,81.70
2019-04-26T08:41:40.765Z,82.08
2019-04-26T08:44:41.539Z,82.06
2019-04-26T08:47:45.956Z,82.61
2019-04-26T08:50:45.911Z,82.24
2019-04-26T08:53:32.095Z,82.14
2019-04-26T08:56:22.460Z,81.77
2019-04-26T08:59:15.006Z,82.08
2019-04-26T09:02:21.258Z,82.61
2019-04-26T09:05:31.240Z,82.38
2019-04-26T09:08:19.120Z,82.89
2019-04-26T09:11:06.355Z,82.51
2019-04-26T09:13:52.880Z,82.17
2019-04-26T09:16:49.822Z,81.76
2019-04-26T09:19:30.566Z,81.54
2019-04-26T09:22:22.755Z,81.03
2019-04-26T09:25:16.925Z,80.08
2019-04-26T09:28:17.945Z,80.56
2019-04-26T09:31:23.690Z,80.42
2019-04-26T09:35:02.358Z,80.70
2019-04-26T09:37:50.958Z,80.88
2019-04-26T09:40:37.623Z,81.45
2019-04-26T09:43:45.380Z,82.40
2019-04-26T09:46:54.377Z,82.22
2019-04-26T09:50:02.378Z,82.58
2019-04-26T09:52:51.398Z,82.86
2019-04-26T09:55:37.799Z,82.79
2019-04-26T09:58:26.778Z,81.79
2019-04-26T10:01:13.776Z,81.80
2019-04-26T10:04:00.277Z,82.39
2019-04-26T10:06:47.076Z,82.19
2019-04-26T10:09:33.715Z,82.87
2019-04-26T10:12:29.255Z,82.70
2019-04-26T10:15:26.859Z,83.32
2019-04-26T10:18:25.920Z,82.04
2019-04-26T10:21:11.817Z,82.81
2019-04-26T10:24:01.455Z,81.99
2019-04-26T10:26:49.396Z,80.91
2019-04-26T10:29:35.826Z,81.07
2019-04-26T10:32:26.288Z,79.78
2019-04-26T10:35:11.390Z,80.14
2019-04-26T10:37:57.917Z,79.76
2019-04-26T10:40:44.164Z,78.85
2019-04-26T10:43:30.203Z,79.65
2019-04-26T10:46:16.295Z,79.07
2019-04-26T10:49:24.679Z,77.73
2019-04-26T10:52:34.236Z,78.28
2019-04-26T10:55:50.209Z,78.13
2019-04-26T10:58:56.617Z,78.77
2019-04-26T11:01:44.235Z,78.02
2019-04-26T11:04:30.476Z,79.47
2019-04-26T11:07:16.681Z,80.28
2019-04-26T11:10:04.515Z,79.72
2019-04-26T11:12:50.783Z,78.82
2019-04-26T11:15:36.955Z,78.58
2019-04-26T11:18:27.310Z,77.57
2019-04-26T11:21:11.676Z,78.80
2019-04-26T11:23:58.256Z,79.03
2019-04-26T11:26:44.515Z,79.43
2019-04-26T11:29:30.683Z,79.06
2019-04-26T11:32:16.755Z,78.52
2019-04-26T11:35:03.462Z,79.48
2019-04-26T11:37:50.686Z,79.17
2019-04-26T11:40:37.978Z,77.96
2019-04-26T11:43:23.991Z,78.47
2019-04-26T11:46:11.035Z,77.27
2019-04-26T11:48:59.319Z,77.38
2019-04-26T11:51:45.376Z,76.85
2019-04-26T11:54:31.495Z,76.79
2019-04-26T11:57:17.523Z,77.16
2019-04-26T12:00:05.457Z,76.31
2019-04-26T12:02:52.435Z,74.87
2019-04-26T12:06:10.159Z,75.72
2019-04-26T12:08:59.055Z,74.94
2019-04-26T12:11:50.990Z,75.80
2019-04-26T12:14:34.363Z,74.87
2019-04-26T12:17:20.475Z,76.62
2019-04-26T12:20:06.895Z,76.12
2019-04-26T12:22:52.896Z,76.09
2019-04-26T12:25:43.642Z,75.62
2019-04-26T12:28:27.455Z,75.54
2019-04-26T12:31:15.188Z,74.57
2019-04-26T12:34:01.758Z,74.14
2019-04-26T12:36:47.935Z,73.79
2019-04-26T12:39:36.819Z,75.38
2019-04-26T12:42:22.075Z,75.37
2019-04-26T12:45:33.775Z,72.71
2019-04-26T12:48:21.355Z,72.58
2019-04-26T12:51:08.232Z,72.75
2019-04-26T12:53:55.964Z,74.44
2019-04-26T12:56:42.537Z,74.45
2019-04-26T12:59:28.596Z,75.09
2019-04-26T13:02:16.523Z,75.19
2019-04-26T13:05:02.995Z,75.23
2019-04-26T13:07:53.821Z,75.56
2019-04-26T13:11:07.913Z,75.84
2019-04-26T13:14:08.035Z,75.74
2019-04-26T13:17:02.373Z,76.08
2019-04-26T13:19:49.659Z,76.58
2019-04-26T13:22:45.844Z,76.88
2019-04-26T13:25:26.676Z,76.14
2019-04-26T13:28:15.786Z,76.48
2019-04-26T13:31:02.368Z,76.97
2019-04-26T13:33:48.959Z,77.03
2019-04-26T13:36:35.292Z,77.72
2019-04-26T13:39:22.503Z,78.30
2019-04-26T13:42:09.723Z,79.50
2019-04-26T13:45:07.157Z,79.16
2019-04-26T13:48:28.115Z,78.99
2019-04-26T13:51:15.675Z,78.20
2019-04-26T13:54:02.101Z,78.80
2019-04-26T13:56:48.175Z,79.05
2019-04-26T13:59:34.415Z,78.22
2019-04-26T14:02:20.715Z,77.83
2019-04-26T14:05:07.315Z,79.31
2019-04-26T14:07:54.105Z,79.06
2019-04-26T14:10:40.504Z,79.60
2019-04-26T14:13:26.996Z,79.90
2019-04-26T14:16:16.992Z,78.68
2019-04-26T14:19:01.937Z,79.76
2019-04-26T14:21:48.357Z,80.24
2019-04-26T14:24:58.292Z,81.34
2019-04-26T14:27:51.515Z,81.22
2019-04-26T14:30:41.879Z,80.57
2019-04-26T14:33:27.077Z,81.29
2019-04-26T14:36:17.847Z,82.24
2019-04-26T14:39:06.168Z,80.73
2019-04-26T14:41:56.937Z,82.56
2019-04-26T14:44:49.304Z,82.72
2019-04-26T14:47:30.498Z,82.26
2019-04-26T14:50:17.335Z,81.85
2019-04-26T14:53:03.777Z,82.01
2019-04-26T14:55:51.226Z,81.55
2019-04-26T14:58:38.055Z,81.08
2019-04-26T15:01:52.756Z,81.49
2019-04-26T15:04:54.156Z,81.48
2019-04-26T15:07:49.544Z,80.98
2019-04-26T15:10:43.795Z,80.66
2019-04-26T15:13:23.589Z,81.14
2019-04-26T15:16:11.843Z,79.81
2019-04-26T15:18:57.978Z,80.19
2019-04-26T15:21:44.247Z,79.76
2019-04-26T15:24:34.983Z,79.68
2019-04-26T15:27:23.243Z,79.39
2019-04-26T15:30:09.772Z,79.81
2019-04-26T15:32:55.642Z,79.21
2019-04-26T15:35:50.086Z,78.91
2019-04-26T15:38:44.811Z,78.70
2019-04-26T15:41:47.087Z,77.97
2019-04-26T15:45:14.517Z,78.61
2019-04-26T15:48:24.567Z,77.86
2019-04-26T15:51:12.533Z,78.24
2019-04-26T15:53:58.752Z,77.82
2019-04-26T15:56:45.002Z,78.17
2019-04-26T15:59:32.594Z,77.94
2019-04-26T16:02:24.615Z,78.29
2019-04-26T16:05:07.657Z,78.46
2019-04-26T16:07:57.306Z,79.02
2019-04-26T16:10:43.039Z,78.15
2019-04-26T16:13:29.112Z,78.28
2019-04-26T16:16:16.544Z,78.45
2019-04-26T16:19:02.985Z,79.12
2019-04-26T16:21:52.767Z,78.27
2019-04-26T16:24:37.547Z,78.31
2019-04-26T16:27:24.576Z,78.53
2019-04-26T16:30:32.535Z,78.92
2019-04-26T16:33:20.827Z,77.70
2019-04-26T16:36:06.955Z,78.46
2019-04-26T16:38:56.024Z,78.28
2019-04-26T16:41:42.106Z,78.35
2019-04-26T16:44:31.302Z,78.40
2019-04-26T16:47:16.367Z,78.43
2019-04-26T16:50:03.666Z,78.29
2019-04-26T16:52:50.173Z,78.00
2019-04-26T16:55:47.972Z,78.46
2019-04-26T16:58:24.874Z,80.43
2019-04-26T17:01:12.387Z,79.65
2019-04-26T17:03:58.961Z,79.83
2019-04-26T17:06:46.398Z,79.95
2019-04-26T17:09:54.808Z,79.50
2019-04-26T17:12:22.629Z,80.01
2019-04-26T17:15:08.913Z,78.70
2019-04-26T17:17:54.884Z,78.55
2019-04-26T17:20:44.946Z,78.76
2019-04-26T17:23:55.181Z,78.87
2019-04-26T17:26:47.946Z,78.73
2019-04-26T17:29:33.867Z,78.71
2019-04-26T17:32:19.997Z,79.19
2019-04-26T17:35:07.528Z,79.26
2019-04-26T17:37:57.462Z,79.84
2019-04-26T17:40:41.454Z,80.61
2019-04-26T17:43:27.752Z,78.44
2019-04-26T17:46:18.254Z,79.77
2019-04-26T17:49:05.193Z,79.81
2019-04-26T17:51:57.709Z,80.84
2019-04-26T17:54:48.797Z,82.08
2019-04-26T17:57:34.821Z,82.53
2019-04-26T18:00:21.088Z,81.48
2019-04-26T18:03:07.604Z,82.75
2019-04-26T18:05:57.015Z,83.12
2019-04-26T18:08:51.711Z,83.27
2019-04-26T18:11:32.851Z,83.70
2019-04-26T18:14:21.566Z,84.04
2019-04-26T18:17:38.669Z,83.34
2019-04-26T18:20:45.801Z,83.60
2019-04-26T18:23:33.823Z,83.69
2019-04-26T18:26:21.594Z,83.80
2019-04-26T18:29:08.752Z,83.84
2019-04-26T18:31:55.088Z,84.22
2019-04-26T18:34:42.893Z,83.55
2019-04-26T18:37:29.122Z,83.70
2019-04-26T18:40:15.367Z,84.51
2019-04-26T18:43:03.297Z,85.20
2019-04-26T18:45:53.152Z,84.75
2019-04-26T18:48:41.910Z,84.74
2019-04-26T18:51:30.527Z,85.09
2019-04-26T18:54:24.667Z,85.13
2019-04-26T18:57:15.535Z,85.55
2019-04-26T18:59:58.673Z,86.29
2019-04-26T19:02:48.466Z,86.46
2019-04-26T19:05:35.477Z,86.00
2019-04-26T19:08:26.957Z,85.84
2019-04-26T19:11:11.612Z,85.67
2019-04-26T19:14:26.786Z,86.42
2019-04-26T19:17:33.460Z,86.89
2019-04-26T19:20:57.990Z,87.00
2019-04-26T19:23:44.523Z,86.88
2019-04-26T19:26:34.534Z,86.28
2019-04-26T19:29:27.424Z,86.46
2019-04-26T19:32:07.112Z,85.76
2019-04-26T19:34:53.172Z,85.50
2019-04-26T19:37:39.409Z,86.15
2019-04-26T19:40:27.415Z,85.97
2019-04-26T19:43:14.010Z,87.14
2019-04-26T19:46:21.704Z,87.18
2019-04-26T19:49:25.819Z,85.72
2019-04-26T19:52:33.688Z,85.61
2019-04-26T19:55:31.961Z,86.17
2019-04-26T19:58:20.644Z,85.61
2019-04-26T20:01:09.449Z,85.32
2019-04-26T20:03:55.617Z,85.56
2019-04-26T20:06:42.068Z,86.23
2019-04-26T20:09:31.822Z,85.59
2019-04-26T20:12:18.194Z,84.74
2019-04-26T20:15:04.703Z,84.93
2019-04-26T20:17:59.819Z,85.16
2019-04-26T20:20:41.470Z,84.98
2019-04-26T20:23:31.723Z,85.27
2019-04-26T20:26:16.737Z,85.25
2019-04-26T20:29:06.204Z,84.58
2019-04-26T20:32:12.413Z,84.54
2019-04-26T20:35:05.412Z,84.82
2019-04-26T20:37:52.127Z,85.46
2019-04-26T20:40:38.874Z,85.89
2019-04-26T20:43:26.698Z,85.23
2019-04-26T20:46:15.471Z,85.67
2019-04-26T20:49:05.931Z,86.01
2019-04-26T20:51:49.180Z,86.09
2019-04-26T20:54:35.392Z,86.86
2019-04-26T20:57:21.899Z,86.96
2019-04-26T21:00:08.487Z,87.50
2019-04-26T21:03:01.633Z,87.77
2019-04-26T21:05:46.227Z,87.46
2019-04-26T21:08:31.684Z,87.86
2019-04-26T21:11:18.354Z,88.02
2019-04-26T21:14:07.575Z,87.99
2019-04-26T21:16:53.703Z,87.84
2019-04-26T21:19:40.082Z,86.65
2019-04-26T21:22:28.851Z,85.45
2019-04-26T21:25:32.505Z,84.80
2019-04-26T21:28:28.097Z,84.15
2019-04-26T21:31:22.612Z,84.21
2019-04-26T21:34:30.873Z,85.31
2019-04-26T21:37:39.533Z,85.57
2019-04-26T21:40:35.983Z,85.63
2019-04-26T21:43:23.137Z,86.14
2019-04-26T21:46:18.507Z,86.52
2019-04-26T21:48:58.452Z,86.76
2019-04-26T21:51:51.021Z,86.87
2019-04-26T21:54:36.967Z,87.30
2019-04-26T21:57:27.871Z,87.07
2019-04-26T22:00:29.728Z,86.48
2019-04-26T22:03:16.221Z,85.24
2019-04-26T22:06:04.051Z,83.93
2019-04-26T22:09:04.718Z,83.55
2019-04-26T22:11:53.911Z,83.36
2019-04-26T22:14:40.812Z,83.88
2019-04-26T22:17:34.794Z,83.50
2019-04-26T22:20:52.218Z,83.56
2019-04-26T22:23:56.437Z,83.43
2019-04-26T22:26:47.619Z,82.82
2019-04-26T22:29:30.775Z,82.37
2019-04-26T22:32:19.127Z,82.53
2019-04-26T22:35:05.037Z,82.31
2019-04-26T22:37:51.343Z,82.60
2019-04-26T22:40:37.467Z,82.46
2019-04-26T22:43:41.695Z,82.53
2019-04-26T22:46:47.427Z,82.95
2019-04-26T22:49:30.098Z,83.29
2019-04-26T22:52:16.763Z,83.15
2019-04-26T22:55:04.481Z,82.65
2019-04-26T22:57:50.751Z,82.36
2019-04-26T23:00:39.812Z,82.13
2019-04-26T23:03:26.197Z,81.99
2019-04-26T23:06:13.589Z,82.32
2019-04-26T23:09:00.693Z,81.67
2019-04-26T23:11:51.537Z,81.11
2019-04-26T23:14:57.483Z,81.30
2019-04-26T23:18:03.656Z,80.50
2019-04-26T23:21:14.509Z,80.33
2019-04-26T23:23:59.835Z,80.00
2019-04-26T23:26:47.206Z,80.04
2019-04-26T23:29:33.726Z,80.10
2019-04-26T23:32:20.168Z,79.95
2019-04-26T23:35:06.357Z,79.70
2019-04-26T23:37:56.654Z,79.91
2019-04-26T23:40:40.972Z,79.91
2019-04-26T23:43:26.907Z,80.10
2019-04-26T23:46:14.667Z,80.41
2019-04-26T23:49:00.752Z,80.34
2019-04-26T23:51:46.783Z,80.38
2019-04-26T23:54:35.872Z,80.39
2019-04-26T23:57:21.271Z,80.28
